sensor_id;sensor_type;location;lat;lon;timestamp;temperature;humidity
48212;DHT22;34000;48.772;9.162;2022-12-10T00:01:21;7.60;56.90
48212;DHT22;34000;48.772;9.162;2022-12-10T00:03:47;7.60;57.00
48212;DHT22;34000;48.772;9.162;2022-12-10T00:06:13;7.50;57.00
48212;DHT22;34000;48.772;9.162;2022-12-10T00:08:39;7.50;57.10
48212;DHT22;34000;48.772;9.162;2022-12-10T00:11:06;7.50;57.10
48212;DHT22;34000;48.772;9.162;2022-12-10T00:13:32;7.50;57.10
48212;DHT22;34000;48.772;9.162;2022-12-10T00:16:01;7.40;57.10
48212;DHT22;34000;48.772;9.162;2022-12-10T00:18:27;7.50;57.10
48212;DHT22;34000;48.772;9.162;2022-12-10T00:20:52;7.50;57.20
48212;DHT22;34000;48.772;9.162;2022-12-10T00:23:18;7.40;57.20
48212;DHT22;34000;48.772;9.162;2022-12-10T00:25:43;7.50;57.20
48212;DHT22;34000;48.772;9.162;2022-12-10T00:28:09;7.40;57.20
48212;DHT22;34000;48.772;9.162;2022-12-10T00:30:34;7.50;57.20
48212;DHT22;34000;48.772;9.162;2022-12-10T00:33:00;7.50;57.10
48212;DHT22;34000;48.772;9.162;2022-12-10T00:35:25;7.50;57.10
48212;DHT22;34000;48.772;9.162;2022-12-10T00:37:51;7.50;57.10
48212;DHT22;34000;48.772;9.162;2022-12-10T00:40:16;7.50;57.10
48212;DHT22;34000;48.772;9.162;2022-12-10T00:42:42;7.50;57.10
48212;DHT22;34000;48.772;9.162;2022-12-10T00:45:07;7.50;57.00
48212;DHT22;34000;48.772;9.162;2022-12-10T00:47:33;7.50;57.10
48212;DHT22;34000;48.772;9.162;2022-12-10T00:49:58;7.50;57.10
48212;DHT22;34000;48.772;9.162;2022-12-10T00:52:24;7.50;57.20
48212;DHT22;34000;48.772;9.162;2022-12-10T00:54:49;7.50;57.10
48212;DHT22;34000;48.772;9.162;2022-12-10T00:57:15;7.50;57.10
48212;DHT22;34000;48.772;9.162;2022-12-10T00:59:41;7.50;57.10
48212;DHT22;34000;48.772;9.162;2022-12-10T01:02:06;7.40;57.00
48212;DHT22;34000;48.772;9.162;2022-12-10T01:04:31;7.50;57.10
48212;DHT22;34000;48.772;9.162;2022-12-10T01:06:57;7.50;57.10
48212;DHT22;34000;48.772;9.162;2022-12-10T01:09:26;7.50;57.10
48212;DHT22;34000;48.772;9.162;2022-12-10T01:11:52;7.50;57.10
48212;DHT22;34000;48.772;9.162;2022-12-10T01:14:19;7.50;57.00
48212;DHT22;34000;48.772;9.162;2022-12-10T01:16:46;7.50;57.00
48212;DHT22;34000;48.772;9.162;2022-12-10T01:19:11;7.60;57.00
48212;DHT22;34000;48.772;9.162;2022-12-10T01:21:37;7.60;57.00
48212;DHT22;34000;48.772;9.162;2022-12-10T01:24:02;7.60;57.00
48212;DHT22;34000;48.772;9.162;2022-12-10T01:26:30;7.60;56.90
48212;DHT22;34000;48.772;9.162;2022-12-10T01:28:56;7.50;56.90
48212;DHT22;34000;48.772;9.162;2022-12-10T01:31:22;7.60;56.90
48212;DHT22;34000;48.772;9.162;2022-12-10T01:33:48;7.60;56.90
48212;DHT22;34000;48.772;9.162;2022-12-10T01:36:15;7.60;57.00
48212;DHT22;34000;48.772;9.162;2022-12-10T01:38:41;7.60;56.90
48212;DHT22;34000;48.772;9.162;2022-12-10T01:41:07;7.60;57.50
48212;DHT22;34000;48.772;9.162;2022-12-10T01:43:55;7.60;57.00
48212;DHT22;34000;48.772;9.162;2022-12-10T01:46:19;7.60;57.00
48212;DHT22;34000;48.772;9.162;2022-12-10T01:48:44;7.50;56.90
48212;DHT22;34000;48.772;9.162;2022-12-10T01:51:10;7.60;57.00
48212;DHT22;34000;48.772;9.162;2022-12-10T01:53:36;7.60;57.00
48212;DHT22;34000;48.772;9.162;2022-12-10T01:56:02;7.50;56.90
48212;DHT22;34000;48.772;9.162;2022-12-10T01:58:27;7.60;57.00
48212;DHT22;34000;48.772;9.162;2022-12-10T02:00:57;7.60;57.00
48212;DHT22;34000;48.772;9.162;2022-12-10T02:15:12;7.50;57.10
48212;DHT22;34000;48.772;9.162;2022-12-10T02:17:28;7.50;57.10
48212;DHT22;34000;48.772;9.162;2022-12-10T02:22:19;7.50;57.10
48212;DHT22;34000;48.772;9.162;2022-12-10T02:24:46;7.50;57.10
48212;DHT22;34000;48.772;9.162;2022-12-10T02:29:57;7.50;57.10
48212;DHT22;34000;48.772;9.162;2022-12-10T02:32:25;7.50;57.10
48212;DHT22;34000;48.772;9.162;2022-12-10T02:34:53;7.60;57.00
48212;DHT22;34000;48.772;9.162;2022-12-10T02:37:24;7.60;57.00
48212;DHT22;34000;48.772;9.162;2022-12-10T02:39:52;7.50;56.90
48212;DHT22;34000;48.772;9.162;2022-12-10T02:42:19;7.50;56.90
48212;DHT22;34000;48.772;9.162;2022-12-10T02:44:45;7.60;57.00
48212;DHT22;34000;48.772;9.162;2022-12-10T02:47:12;7.60;57.00
48212;DHT22;34000;48.772;9.162;2022-12-10T02:49:38;7.60;57.00
48212;DHT22;34000;48.772;9.162;2022-12-10T02:52:08;7.50;56.90
48212;DHT22;34000;48.772;9.162;2022-12-10T02:54:38;7.50;56.90
48212;DHT22;34000;48.772;9.162;2022-12-10T02:57:28;7.50;57.00
48212;DHT22;34000;48.772;9.162;2022-12-10T03:05:17;7.40;57.20
48212;DHT22;34000;48.772;9.162;2022-12-10T03:07:46;7.30;57.30
48212;DHT22;34000;48.772;9.162;2022-12-10T03:10:36;7.30;57.40
48212;DHT22;34000;48.772;9.162;2022-12-10T03:13:00;7.20;57.40
48212;DHT22;34000;48.772;9.162;2022-12-10T03:15:26;7.10;57.50
48212;DHT22;34000;48.772;9.162;2022-12-10T03:17:52;7.10;57.50
48212;DHT22;34000;48.772;9.162;2022-12-10T03:20:19;7.10;57.50
48212;DHT22;34000;48.772;9.162;2022-12-10T03:22:45;7.20;57.60
48212;DHT22;34000;48.772;9.162;2022-12-10T03:25:13;7.10;57.60
48212;DHT22;34000;48.772;9.162;2022-12-10T03:27:40;7.10;57.60
48212;DHT22;34000;48.772;9.162;2022-12-10T03:30:07;7.10;57.60
48212;DHT22;34000;48.772;9.162;2022-12-10T03:32:33;7.10;57.60
48212;DHT22;34000;48.772;9.162;2022-12-10T03:34:59;7.10;57.60
48212;DHT22;34000;48.772;9.162;2022-12-10T03:37:25;7.10;57.60
48212;DHT22;34000;48.772;9.162;2022-12-10T03:39:51;7.10;57.70
48212;DHT22;34000;48.772;9.162;2022-12-10T03:42:17;7.10;57.70
48212;DHT22;34000;48.772;9.162;2022-12-10T03:44:43;7.00;57.70
48212;DHT22;34000;48.772;9.162;2022-12-10T03:47:10;7.10;57.70
48212;DHT22;34000;48.772;9.162;2022-12-10T03:49:37;7.10;57.80
48212;DHT22;34000;48.772;9.162;2022-12-10T03:52:03;7.10;57.70
48212;DHT22;34000;48.772;9.162;2022-12-10T03:54:28;7.10;57.70
48212;DHT22;34000;48.772;9.162;2022-12-10T03:56:54;7.10;57.60
48212;DHT22;34000;48.772;9.162;2022-12-10T03:59:19;7.20;57.50
48212;DHT22;34000;48.772;9.162;2022-12-10T04:01:45;7.20;57.50
48212;DHT22;34000;48.772;9.162;2022-12-10T04:04:11;7.20;57.50
48212;DHT22;34000;48.772;9.162;2022-12-10T04:06:40;7.20;57.50
48212;DHT22;34000;48.772;9.162;2022-12-10T04:09:06;7.10;57.40
48212;DHT22;34000;48.772;9.162;2022-12-10T04:11:31;7.20;57.40
48212;DHT22;34000;48.772;9.162;2022-12-10T04:13:57;7.20;57.40
48212;DHT22;34000;48.772;9.162;2022-12-10T04:16:41;7.30;57.40
48212;DHT22;34000;48.772;9.162;2022-12-10T04:19:08;7.30;57.40
48212;DHT22;34000;48.772;9.162;2022-12-10T04:21:34;7.30;57.40
48212;DHT22;34000;48.772;9.162;2022-12-10T04:24:20;7.30;57.40
48212;DHT22;34000;48.772;9.162;2022-12-10T04:29:38;7.30;57.40
48212;DHT22;34000;48.772;9.162;2022-12-10T04:32:04;7.30;57.40
48212;DHT22;34000;48.772;9.162;2022-12-10T04:34:30;7.30;57.40
48212;DHT22;34000;48.772;9.162;2022-12-10T04:36:57;7.20;57.30
48212;DHT22;34000;48.772;9.162;2022-12-10T04:39:22;7.30;57.30
48212;DHT22;34000;48.772;9.162;2022-12-10T04:41:48;7.30;57.30
48212;DHT22;34000;48.772;9.162;2022-12-10T04:44:14;7.30;57.30
48212;DHT22;34000;48.772;9.162;2022-12-10T04:46:39;7.30;57.40
48212;DHT22;34000;48.772;9.162;2022-12-10T04:49:05;7.10;57.30
48212;DHT22;34000;48.772;9.162;2022-12-10T04:51:30;7.20;57.30
48212;DHT22;34000;48.772;9.162;2022-12-10T04:53:56;7.20;57.30
48212;DHT22;34000;48.772;9.162;2022-12-10T04:56:22;7.30;57.40
48212;DHT22;34000;48.772;9.162;2022-12-10T04:58:48;7.20;57.40
48212;DHT22;34000;48.772;9.162;2022-12-10T05:01:13;7.20;57.40
48212;DHT22;34000;48.772;9.162;2022-12-10T05:03:39;7.20;57.40
48212;DHT22;34000;48.772;9.162;2022-12-10T05:06:05;7.20;57.40
48212;DHT22;34000;48.772;9.162;2022-12-10T05:08:31;7.20;57.50
48212;DHT22;34000;48.772;9.162;2022-12-10T05:11:01;7.20;57.40
48212;DHT22;34000;48.772;9.162;2022-12-10T05:13:27;7.20;57.50
48212;DHT22;34000;48.772;9.162;2022-12-10T05:15:52;7.20;57.50
48212;DHT22;34000;48.772;9.162;2022-12-10T05:18:18;7.10;57.40
48212;DHT22;34000;48.772;9.162;2022-12-10T05:20:43;7.20;57.50
48212;DHT22;34000;48.772;9.162;2022-12-10T05:23:09;7.20;57.50
48212;DHT22;34000;48.772;9.162;2022-12-10T05:28:27;7.10;57.60
48212;DHT22;34000;48.772;9.162;2022-12-10T05:30:53;7.00;57.70
48212;DHT22;34000;48.772;9.162;2022-12-10T05:33:18;7.00;57.70
48212;DHT22;34000;48.772;9.162;2022-12-10T05:35:50;6.90;57.70
48212;DHT22;34000;48.772;9.162;2022-12-10T05:38:16;7.00;57.80
48212;DHT22;34000;48.772;9.162;2022-12-10T05:40:41;7.00;57.80
48212;DHT22;34000;48.772;9.162;2022-12-10T05:43:07;7.10;57.90
48212;DHT22;34000;48.772;9.162;2022-12-10T05:45:32;7.00;57.70
48212;DHT22;34000;48.772;9.162;2022-12-10T05:47:58;7.00;57.80
48212;DHT22;34000;48.772;9.162;2022-12-10T05:50:23;7.00;57.90
48212;DHT22;34000;48.772;9.162;2022-12-10T05:52:50;7.00;57.90
48212;DHT22;34000;48.772;9.162;2022-12-10T05:55:15;7.00;57.90
48212;DHT22;34000;48.772;9.162;2022-12-10T05:57:41;6.90;57.90
48212;DHT22;34000;48.772;9.162;2022-12-10T06:00:07;7.00;58.00
48212;DHT22;34000;48.772;9.162;2022-12-10T06:02:32;6.90;58.00
48212;DHT22;34000;48.772;9.162;2022-12-10T06:04:58;6.80;58.00
48212;DHT22;34000;48.772;9.162;2022-12-10T06:07:24;6.80;58.10
48212;DHT22;34000;48.772;9.162;2022-12-10T06:09:50;6.80;58.10
48212;DHT22;34000;48.772;9.162;2022-12-10T06:12:15;6.80;58.10
48212;DHT22;34000;48.772;9.162;2022-12-10T06:14:41;6.80;58.10
48212;DHT22;34000;48.772;9.162;2022-12-10T06:17:06;6.90;58.20
48212;DHT22;34000;48.772;9.162;2022-12-10T06:19:32;6.90;58.10
48212;DHT22;34000;48.772;9.162;2022-12-10T06:21:57;6.90;58.00
48212;DHT22;34000;48.772;9.162;2022-12-10T06:24:23;6.90;58.00
48212;DHT22;34000;48.772;9.162;2022-12-10T06:26:49;7.00;58.00
48212;DHT22;34000;48.772;9.162;2022-12-10T06:29:15;6.90;57.90
48212;DHT22;34000;48.772;9.162;2022-12-10T06:31:40;6.90;58.00
48212;DHT22;34000;48.772;9.162;2022-12-10T06:34:06;6.90;57.90
48212;DHT22;34000;48.772;9.162;2022-12-10T06:36:31;6.90;57.90
48212;DHT22;34000;48.772;9.162;2022-12-10T06:38:57;6.80;57.90
48212;DHT22;34000;48.772;9.162;2022-12-10T06:41:22;6.90;58.00
48212;DHT22;34000;48.772;9.162;2022-12-10T06:43:48;6.90;58.00
48212;DHT22;34000;48.772;9.162;2022-12-10T06:46:15;6.90;58.00
48212;DHT22;34000;48.772;9.162;2022-12-10T06:48:41;6.90;58.00
48212;DHT22;34000;48.772;9.162;2022-12-10T06:51:07;6.90;58.00
48212;DHT22;34000;48.772;9.162;2022-12-10T06:53:33;6.90;57.90
48212;DHT22;34000;48.772;9.162;2022-12-10T06:55:59;6.90;57.90
48212;DHT22;34000;48.772;9.162;2022-12-10T06:58:26;6.90;57.90
48212;DHT22;34000;48.772;9.162;2022-12-10T07:00:52;6.90;57.90
48212;DHT22;34000;48.772;9.162;2022-12-10T07:03:17;7.00;57.90
48212;DHT22;34000;48.772;9.162;2022-12-10T07:05:43;6.90;57.90
48212;DHT22;34000;48.772;9.162;2022-12-10T07:08:08;6.90;57.90
48212;DHT22;34000;48.772;9.162;2022-12-10T07:10:33;7.00;57.90
48212;DHT22;34000;48.772;9.162;2022-12-10T07:12:59;6.90;57.90
48212;DHT22;34000;48.772;9.162;2022-12-10T07:15:25;6.90;57.90
48212;DHT22;34000;48.772;9.162;2022-12-10T07:17:52;7.00;57.90
48212;DHT22;34000;48.772;9.162;2022-12-10T07:20:18;6.90;57.90
48212;DHT22;34000;48.772;9.162;2022-12-10T07:22:43;7.00;57.90
48212;DHT22;34000;48.772;9.162;2022-12-10T07:25:09;7.00;57.80
48212;DHT22;34000;48.772;9.162;2022-12-10T07:27:34;7.00;57.80
48212;DHT22;34000;48.772;9.162;2022-12-10T07:30:00;7.10;57.90
48212;DHT22;34000;48.772;9.162;2022-12-10T07:32:28;7.10;57.80
48212;DHT22;34000;48.772;9.162;2022-12-10T07:34:54;7.00;57.80
48212;DHT22;34000;48.772;9.162;2022-12-10T07:37:19;7.00;57.80
48212;DHT22;34000;48.772;9.162;2022-12-10T07:39:45;7.00;57.70
48212;DHT22;34000;48.772;9.162;2022-12-10T07:42:11;7.10;57.80
48212;DHT22;34000;48.772;9.162;2022-12-10T07:44:36;7.10;57.80
48212;DHT22;34000;48.772;9.162;2022-12-10T07:47:02;7.10;57.70
48212;DHT22;34000;48.772;9.162;2022-12-10T07:49:28;7.10;57.70
48212;DHT22;34000;48.772;9.162;2022-12-10T07:51:54;7.10;57.70
48212;DHT22;34000;48.772;9.162;2022-12-10T07:54:19;7.10;57.70
48212;DHT22;34000;48.772;9.162;2022-12-10T07:56:45;7.20;57.80
48212;DHT22;34000;48.772;9.162;2022-12-10T07:59:11;7.20;57.80
48212;DHT22;34000;48.772;9.162;2022-12-10T08:01:36;7.20;57.70
48212;DHT22;34000;48.772;9.162;2022-12-10T08:04:02;7.20;57.70
48212;DHT22;34000;48.772;9.162;2022-12-10T08:06:28;7.20;57.60
48212;DHT22;34000;48.772;9.162;2022-12-10T08:08:53;7.30;57.60
48212;DHT22;34000;48.772;9.162;2022-12-10T08:11:19;7.30;57.50
48212;DHT22;34000;48.772;9.162;2022-12-10T08:13:45;7.30;57.50
48212;DHT22;34000;48.772;9.162;2022-12-10T08:16:14;7.30;57.50
48212;DHT22;34000;48.772;9.162;2022-12-10T08:18:40;7.20;57.50
48212;DHT22;34000;48.772;9.162;2022-12-10T08:21:06;7.30;57.50
48212;DHT22;34000;48.772;9.162;2022-12-10T08:23:32;7.30;57.50
48212;DHT22;34000;48.772;9.162;2022-12-10T08:25:58;7.30;57.50
48212;DHT22;34000;48.772;9.162;2022-12-10T08:28:24;7.30;57.50
48212;DHT22;34000;48.772;9.162;2022-12-10T08:30:49;7.40;57.50
48212;DHT22;34000;48.772;9.162;2022-12-10T08:33:15;7.30;57.40
48212;DHT22;34000;48.772;9.162;2022-12-10T08:35:40;7.40;57.40
48212;DHT22;34000;48.772;9.162;2022-12-10T08:38:06;7.40;57.30
48212;DHT22;34000;48.772;9.162;2022-12-10T08:40:32;7.50;57.30
48212;DHT22;34000;48.772;9.162;2022-12-10T08:42:57;7.40;57.20
48212;DHT22;34000;48.772;9.162;2022-12-10T08:45:23;7.40;57.30
48212;DHT22;34000;48.772;9.162;2022-12-10T08:47:48;7.30;57.30
48212;DHT22;34000;48.772;9.162;2022-12-10T08:50:13;7.30;57.40
48212;DHT22;34000;48.772;9.162;2022-12-10T08:52:39;7.30;57.50
48212;DHT22;34000;48.772;9.162;2022-12-10T08:55:05;7.40;57.40
48212;DHT22;34000;48.772;9.162;2022-12-10T08:57:30;7.40;57.40
48212;DHT22;34000;48.772;9.162;2022-12-10T08:59:56;7.50;57.30
48212;DHT22;34000;48.772;9.162;2022-12-10T09:02:21;7.50;57.30
48212;DHT22;34000;48.772;9.162;2022-12-10T09:04:47;7.50;57.20
48212;DHT22;34000;48.772;9.162;2022-12-10T09:07:14;7.60;57.20
48212;DHT22;34000;48.772;9.162;2022-12-10T09:09:40;7.60;57.20
48212;DHT22;34000;48.772;9.162;2022-12-10T09:12:05;7.60;57.10
48212;DHT22;34000;48.772;9.162;2022-12-10T09:14:30;7.60;57.10
48212;DHT22;34000;48.772;9.162;2022-12-10T09:16:57;7.60;57.10
48212;DHT22;34000;48.772;9.162;2022-12-10T09:19:22;7.70;57.10
48212;DHT22;34000;48.772;9.162;2022-12-10T09:21:48;7.70;57.00
48212;DHT22;34000;48.772;9.162;2022-12-10T09:24:13;7.70;57.00
48212;DHT22;34000;48.772;9.162;2022-12-10T09:26:39;7.70;57.00
48212;DHT22;34000;48.772;9.162;2022-12-10T09:29:04;7.70;57.00
48212;DHT22;34000;48.772;9.162;2022-12-10T09:31:30;7.80;56.90
48212;DHT22;34000;48.772;9.162;2022-12-10T09:33:55;7.80;56.90
48212;DHT22;34000;48.772;9.162;2022-12-10T09:36:21;7.80;56.80
48212;DHT22;34000;48.772;9.162;2022-12-10T09:38:47;7.80;56.80
48212;DHT22;34000;48.772;9.162;2022-12-10T09:43:46;7.90;56.80
48212;DHT22;34000;48.772;9.162;2022-12-10T09:46:24;7.90;56.80
48212;DHT22;34000;48.772;9.162;2022-12-10T09:51:37;7.90;56.60
48212;DHT22;34000;48.772;9.162;2022-12-10T09:54:23;7.90;56.70
48212;DHT22;34000;48.772;9.162;2022-12-10T09:56:50;7.90;56.60
48212;DHT22;34000;48.772;9.162;2022-12-10T09:59:32;7.90;56.60
48212;DHT22;34000;48.772;9.162;2022-12-10T10:04:25;7.90;56.70
48212;DHT22;34000;48.772;9.162;2022-12-10T10:06:51;7.80;56.60
48212;DHT22;34000;48.772;9.162;2022-12-10T10:09:16;7.90;56.60
48212;DHT22;34000;48.772;9.162;2022-12-10T10:11:42;7.90;56.70
48212;DHT22;34000;48.772;9.162;2022-12-10T10:14:17;7.80;56.60
48212;DHT22;34000;48.772;9.162;2022-12-10T10:16:49;7.90;56.60
48212;DHT22;34000;48.772;9.162;2022-12-10T10:19:17;7.90;56.60
48212;DHT22;34000;48.772;9.162;2022-12-10T10:21:47;7.90;56.60
48212;DHT22;34000;48.772;9.162;2022-12-10T10:24:13;7.90;56.60
48212;DHT22;34000;48.772;9.162;2022-12-10T10:26:39;7.90;56.60
48212;DHT22;34000;48.772;9.162;2022-12-10T10:29:06;7.90;56.50
48212;DHT22;34000;48.772;9.162;2022-12-10T10:31:33;7.90;56.50
48212;DHT22;34000;48.772;9.162;2022-12-10T10:34:04;8.00;56.50
48212;DHT22;34000;48.772;9.162;2022-12-10T10:36:33;8.00;56.50
48212;DHT22;34000;48.772;9.162;2022-12-10T10:39:23;8.00;56.40
48212;DHT22;34000;48.772;9.162;2022-12-10T10:41:52;8.00;56.40
48212;DHT22;34000;48.772;9.162;2022-12-10T10:44:22;8.00;56.30
48212;DHT22;34000;48.772;9.162;2022-12-10T10:46:49;8.00;56.30
48212;DHT22;34000;48.772;9.162;2022-12-10T10:49:28;8.00;56.30
48212;DHT22;34000;48.772;9.162;2022-12-10T10:52:12;8.10;56.30
48212;DHT22;34000;48.772;9.162;2022-12-10T10:54:39;8.00;56.30
48212;DHT22;34000;48.772;9.162;2022-12-10T10:59:51;8.10;56.30
48212;DHT22;34000;48.772;9.162;2022-12-10T11:02:25;8.20;56.20
48212;DHT22;34000;48.772;9.162;2022-12-10T11:04:54;8.20;56.10
48212;DHT22;34000;48.772;9.162;2022-12-10T11:07:22;8.20;56.10
48212;DHT22;34000;48.772;9.162;2022-12-10T11:09:48;8.20;56.00
48212;DHT22;34000;48.772;9.162;2022-12-10T11:14:57;8.30;56.00
48212;DHT22;34000;48.772;9.162;2022-12-10T11:17:23;8.30;55.90
48212;DHT22;34000;48.772;9.162;2022-12-10T11:22:22;8.40;55.90
48212;DHT22;34000;48.772;9.162;2022-12-10T11:24:48;8.30;55.80
48212;DHT22;34000;48.772;9.162;2022-12-10T11:27:35;8.40;55.80
48212;DHT22;34000;48.772;9.162;2022-12-10T11:30:04;8.30;55.70
48212;DHT22;34000;48.772;9.162;2022-12-10T11:32:34;8.40;55.80
48212;DHT22;34000;48.772;9.162;2022-12-10T11:35:02;8.40;55.70
48212;DHT22;34000;48.772;9.162;2022-12-10T11:37:41;8.40;55.70
48212;DHT22;34000;48.772;9.162;2022-12-10T11:45:42;8.40;55.50
48212;DHT22;34000;48.772;9.162;2022-12-10T11:50:49;8.40;55.50
48212;DHT22;34000;48.772;9.162;2022-12-10T11:53:26;8.50;55.40
48212;DHT22;34000;48.772;9.162;2022-12-10T12:01:16;8.60;55.10
48212;DHT22;34000;48.772;9.162;2022-12-10T12:09:06;8.70;54.90
48212;DHT22;34000;48.772;9.162;2022-12-10T12:15:16;8.70;54.90
48212;DHT22;34000;48.772;9.162;2022-12-10T12:17:18;8.70;54.80
48212;DHT22;34000;48.772;9.162;2022-12-10T12:19:47;8.80;54.90
48212;DHT22;34000;48.772;9.162;2022-12-10T12:22:27;8.80;54.80
48212;DHT22;34000;48.772;9.162;2022-12-10T12:24:55;8.80;54.70
48212;DHT22;34000;48.772;9.162;2022-12-10T12:29:59;8.80;54.60
48212;DHT22;34000;48.772;9.162;2022-12-10T12:35:13;9.00;54.70
48212;DHT22;34000;48.772;9.162;2022-12-10T12:37:48;8.90;54.50
48212;DHT22;34000;48.772;9.162;2022-12-10T12:40:24;9.00;54.50
48212;DHT22;34000;48.772;9.162;2022-12-10T12:42:56;9.00;54.50
48212;DHT22;34000;48.772;9.162;2022-12-10T12:45:34;9.00;54.50
48212;DHT22;34000;48.772;9.162;2022-12-10T12:52:58;8.90;54.30
48212;DHT22;34000;48.772;9.162;2022-12-10T12:58:13;8.90;54.30
48212;DHT22;34000;48.772;9.162;2022-12-10T13:00:42;8.90;54.40
48212;DHT22;34000;48.772;9.162;2022-12-10T13:05:53;8.80;54.60
48212;DHT22;34000;48.772;9.162;2022-12-10T13:15:48;8.60;54.50
48212;DHT22;34000;48.772;9.162;2022-12-10T13:20:48;8.60;54.50
48212;DHT22;34000;48.772;9.162;2022-12-10T13:28:27;8.50;54.70
48212;DHT22;34000;48.772;9.162;2022-12-10T13:31:53;8.50;54.80
48212;DHT22;34000;48.772;9.162;2022-12-10T13:36:20;8.40;54.80
48212;DHT22;34000;48.772;9.162;2022-12-10T13:38:56;8.40;54.80
48212;DHT22;34000;48.772;9.162;2022-12-10T13:41:22;8.40;54.90
48212;DHT22;34000;48.772;9.162;2022-12-10T13:44:32;8.40;54.90
48212;DHT22;34000;48.772;9.162;2022-12-10T13:49:24;8.20;54.90
48212;DHT22;34000;48.772;9.162;2022-12-10T13:59:41;8.10;55.10
48212;DHT22;34000;48.772;9.162;2022-12-10T14:04:44;7.90;55.20
48212;DHT22;34000;48.772;9.162;2022-12-10T14:07:13;7.90;55.20
48212;DHT22;34000;48.772;9.162;2022-12-10T14:09:42;7.80;55.30
48212;DHT22;34000;48.772;9.162;2022-12-10T14:12:12;7.70;55.40
48212;DHT22;34000;48.772;9.162;2022-12-10T14:14:40;7.80;55.50
48212;DHT22;34000;48.772;9.162;2022-12-10T14:17:09;7.70;55.50
48212;DHT22;34000;48.772;9.162;2022-12-10T14:19:37;7.70;55.60
48212;DHT22;34000;48.772;9.162;2022-12-10T14:22:04;7.70;55.60
48212;DHT22;34000;48.772;9.162;2022-12-10T14:24:32;7.70;55.60
48212;DHT22;34000;48.772;9.162;2022-12-10T14:26:59;7.70;55.70
48212;DHT22;34000;48.772;9.162;2022-12-10T14:29:26;7.70;55.70
48212;DHT22;34000;48.772;9.162;2022-12-10T14:31:51;7.60;55.60
48212;DHT22;34000;48.772;9.162;2022-12-10T14:34:17;7.60;55.60
48212;DHT22;34000;48.772;9.162;2022-12-10T14:36:47;7.60;55.60
48212;DHT22;34000;48.772;9.162;2022-12-10T14:39:14;7.60;55.60
48212;DHT22;34000;48.772;9.162;2022-12-10T14:41:41;7.60;55.60
48212;DHT22;34000;48.772;9.162;2022-12-10T14:44:08;7.60;55.60
48212;DHT22;34000;48.772;9.162;2022-12-10T14:46:36;7.60;55.60
48212;DHT22;34000;48.772;9.162;2022-12-10T14:49:02;7.70;55.60
48212;DHT22;34000;48.772;9.162;2022-12-10T14:51:33;7.60;55.60
48212;DHT22;34000;48.772;9.162;2022-12-10T14:53:59;7.60;55.60
48212;DHT22;34000;48.772;9.162;2022-12-10T14:56:32;7.50;55.60
48212;DHT22;34000;48.772;9.162;2022-12-10T15:01:32;7.50;55.60
48212;DHT22;34000;48.772;9.162;2022-12-10T15:03:59;7.40;55.60
48212;DHT22;34000;48.772;9.162;2022-12-10T15:06:25;7.50;55.70
48212;DHT22;34000;48.772;9.162;2022-12-10T15:08:53;7.40;55.60
48212;DHT22;34000;48.772;9.162;2022-12-10T15:11:19;7.40;55.60
48212;DHT22;34000;48.772;9.162;2022-12-10T15:13:51;7.40;55.60
48212;DHT22;34000;48.772;9.162;2022-12-10T15:16:29;7.30;55.60
48212;DHT22;34000;48.772;9.162;2022-12-10T15:19:06;7.30;55.70
48212;DHT22;34000;48.772;9.162;2022-12-10T15:21:32;7.30;55.70
48212;DHT22;34000;48.772;9.162;2022-12-10T15:24:13;7.30;55.70
48212;DHT22;34000;48.772;9.162;2022-12-10T15:26:42;7.30;55.70
48212;DHT22;34000;48.772;9.162;2022-12-10T15:29:15;7.40;55.80
48212;DHT22;34000;48.772;9.162;2022-12-10T15:32:03;7.30;55.70
48212;DHT22;34000;48.772;9.162;2022-12-10T15:34:30;7.30;55.70
48212;DHT22;34000;48.772;9.162;2022-12-10T15:37:02;7.20;55.60
48212;DHT22;34000;48.772;9.162;2022-12-10T15:39:29;7.20;55.60
48212;DHT22;34000;48.772;9.162;2022-12-10T15:42:04;7.20;55.70
48212;DHT22;34000;48.772;9.162;2022-12-10T15:44:37;7.10;55.70
48212;DHT22;34000;48.772;9.162;2022-12-10T15:49:41;7.10;55.80
48212;DHT22;34000;48.772;9.162;2022-12-10T15:52:11;7.10;55.80
48212;DHT22;34000;48.772;9.162;2022-12-10T15:54:38;7.00;55.80
48212;DHT22;34000;48.772;9.162;2022-12-10T15:57:13;7.00;55.80
48212;DHT22;34000;48.772;9.162;2022-12-10T15:59:40;7.00;55.80
48212;DHT22;34000;48.772;9.162;2022-12-10T16:04:51;7.00;55.80
48212;DHT22;34000;48.772;9.162;2022-12-10T16:07:17;6.90;55.70
48212;DHT22;34000;48.772;9.162;2022-12-10T16:09:43;7.00;55.80
48212;DHT22;34000;48.772;9.162;2022-12-10T16:12:12;7.00;55.70
48212;DHT22;34000;48.772;9.162;2022-12-10T16:14:39;7.00;55.70
48212;DHT22;34000;48.772;9.162;2022-12-10T16:17:07;7.00;55.70
48212;DHT22;34000;48.772;9.162;2022-12-10T16:19:32;7.00;55.60
48212;DHT22;34000;48.772;9.162;2022-12-10T16:21:58;7.00;55.60
48212;DHT22;34000;48.772;9.162;2022-12-10T16:24:24;7.00;55.60
48212;DHT22;34000;48.772;9.162;2022-12-10T16:26:49;7.00;55.50
48212;DHT22;34000;48.772;9.162;2022-12-10T16:29:15;7.00;55.50
48212;DHT22;34000;48.772;9.162;2022-12-10T16:31:41;7.00;55.50
48212;DHT22;34000;48.772;9.162;2022-12-10T16:34:06;7.00;55.50
48212;DHT22;34000;48.772;9.162;2022-12-10T16:36:32;7.00;55.50
48212;DHT22;34000;48.772;9.162;2022-12-10T16:38:58;7.00;55.50
48212;DHT22;34000;48.772;9.162;2022-12-10T16:41:23;6.90;55.40
48212;DHT22;34000;48.772;9.162;2022-12-10T16:43:49;6.90;55.40
48212;DHT22;34000;48.772;9.162;2022-12-10T16:46:15;7.00;55.40
48212;DHT22;34000;48.772;9.162;2022-12-10T16:48:40;7.00;55.40
48212;DHT22;34000;48.772;9.162;2022-12-10T16:51:39;7.00;55.40
48212;DHT22;34000;48.772;9.162;2022-12-10T16:53:58;7.00;55.30
48212;DHT22;34000;48.772;9.162;2022-12-10T16:56:23;7.00;55.30
48212;DHT22;34000;48.772;9.162;2022-12-10T16:58:49;7.00;55.40
48212;DHT22;34000;48.772;9.162;2022-12-10T17:01:19;7.00;55.40
48212;DHT22;34000;48.772;9.162;2022-12-10T17:03:45;7.00;55.40
48212;DHT22;34000;48.772;9.162;2022-12-10T17:06:11;7.00;55.30
48212;DHT22;34000;48.772;9.162;2022-12-10T17:08:37;7.00;55.30
48212;DHT22;34000;48.772;9.162;2022-12-10T17:11:12;7.00;55.30
48212;DHT22;34000;48.772;9.162;2022-12-10T17:13:57;7.00;55.90
48212;DHT22;34000;48.772;9.162;2022-12-10T17:16:23;7.10;55.30
48212;DHT22;34000;48.772;9.162;2022-12-10T17:18:49;6.90;55.20
48212;DHT22;34000;48.772;9.162;2022-12-10T17:21:14;7.00;55.20
48212;DHT22;34000;48.772;9.162;2022-12-10T17:23:40;7.10;55.30
48212;DHT22;34000;48.772;9.162;2022-12-10T17:26:05;7.00;55.20
48212;DHT22;34000;48.772;9.162;2022-12-10T17:28:31;7.00;55.20
48212;DHT22;34000;48.772;9.162;2022-12-10T17:30:57;7.00;55.20
48212;DHT22;34000;48.772;9.162;2022-12-10T17:33:23;7.10;55.30
48212;DHT22;34000;48.772;9.162;2022-12-10T17:35:49;6.90;55.20
48212;DHT22;34000;48.772;9.162;2022-12-10T17:38:18;6.80;55.30
48212;DHT22;34000;48.772;9.162;2022-12-10T17:40:44;6.80;55.30
48212;DHT22;34000;48.772;9.162;2022-12-10T17:43:10;6.80;55.40
48212;DHT22;34000;48.772;9.162;2022-12-10T17:45:36;6.80;55.40
48212;DHT22;34000;48.772;9.162;2022-12-10T17:48:02;6.90;55.50